sensor_id;sensor_type;location;lat;lon;timestamp;P1;durP1;ratioP1;P2;durP2;ratioP2
47784;SDS011;35233;55.686;37.848;2024-01-15T00:00:43;5.43;;;3.58;;
47784;SDS011;35233;55.686;37.848;2024-01-15T00:03:09;6.60;;;3.63;;
47784;SDS011;35233;55.686;37.848;2024-01-15T00:05:35;6.65;;;3.90;;
47784;SDS011;35233;55.686;37.848;2024-01-15T00:08:01;5.13;;;3.60;;
47784;SDS011;35233;55.686;37.848;2024-01-15T00:10:27;5.40;;;3.90;;
47784;SDS011;35233;55.686;37.848;2024-01-15T00:12:52;5.25;;;3.65;;
47784;SDS011;35233;55.686;37.848;2024-01-15T00:15:18;6.78;;;3.53;;
47784;SDS011;35233;55.686;37.848;2024-01-15T00:17:43;5.07;;;3.83;;
47784;SDS011;35233;55.686;37.848;2024-01-15T00:20:09;4.70;;;3.42;;
47784;SDS011;35233;55.686;37.848;2024-01-15T00:22:35;5.72;;;3.90;;
47784;SDS011;35233;55.686;37.848;2024-01-15T00:25:02;5.05;;;3.80;;
47784;SDS011;35233;55.686;37.848;2024-01-15T00:27:27;4.65;;;3.35;;
47784;SDS011;35233;55.686;37.848;2024-01-15T00:29:53;4.72;;;3.45;;
47784;SDS011;35233;55.686;37.848;2024-01-15T00:32:19;5.35;;;3.50;;
47784;SDS011;35233;55.686;37.848;2024-01-15T00:34:45;5.47;;;3.75;;
47784;SDS011;35233;55.686;37.848;2024-01-15T00:37:11;5.20;;;3.45;;
47784;SDS011;35233;55.686;37.848;2024-01-15T00:39:37;5.57;;;4.18;;
47784;SDS011;35233;55.686;37.848;2024-01-15T00:42:03;5.10;;;3.42;;
47784;SDS011;35233;55.686;37.848;2024-01-15T00:44:29;5.97;;;3.70;;
47784;SDS011;35233;55.686;37.848;2024-01-15T00:46:55;5.03;;;3.45;;
47784;SDS011;35233;55.686;37.848;2024-01-15T00:49:20;5.90;;;3.88;;
47784;SDS011;35233;55.686;37.848;2024-01-15T00:51:47;5.60;;;3.53;;
47784;SDS011;35233;55.686;37.848;2024-01-15T00:54:12;4.80;;;3.40;;
47784;SDS011;35233;55.686;37.848;2024-01-15T00:56:38;5.53;;;4.00;;
47784;SDS011;35233;55.686;37.848;2024-01-15T00:59:03;4.88;;;3.60;;
47784;SDS011;35233;55.686;37.848;2024-01-15T01:01:29;4.88;;;3.72;;
47784;SDS011;35233;55.686;37.848;2024-01-15T01:03:55;5.97;;;3.47;;
47784;SDS011;35233;55.686;37.848;2024-01-15T01:06:21;5.15;;;3.70;;
47784;SDS011;35233;55.686;37.848;2024-01-15T01:08:46;4.95;;;3.60;;
47784;SDS011;35233;55.686;37.848;2024-01-15T01:11:15;5.15;;;3.72;;
47784;SDS011;35233;55.686;37.848;2024-01-15T01:13:41;5.47;;;3.50;;
47784;SDS011;35233;55.686;37.848;2024-01-15T01:16:07;5.97;;;3.80;;
47784;SDS011;35233;55.686;37.848;2024-01-15T01:18:33;6.35;;;3.90;;
47784;SDS011;35233;55.686;37.848;2024-01-15T01:20:58;6.45;;;3.50;;
47784;SDS011;35233;55.686;37.848;2024-01-15T01:23:24;6.13;;;4.10;;
47784;SDS011;35233;55.686;37.848;2024-01-15T01:25:50;5.32;;;3.63;;
47784;SDS011;35233;55.686;37.848;2024-01-15T01:28:15;5.53;;;3.92;;
47784;SDS011;35233;55.686;37.848;2024-01-15T01:30:41;5.45;;;4.07;;
47784;SDS011;35233;55.686;37.848;2024-01-15T01:33:07;5.03;;;3.60;;
47784;SDS011;35233;55.686;37.848;2024-01-15T01:35:32;5.10;;;3.60;;
47784;SDS011;35233;55.686;37.848;2024-01-15T01:37:58;4.97;;;3.63;;
47784;SDS011;35233;55.686;37.848;2024-01-15T01:40:23;6.43;;;4.00;;
47784;SDS011;35233;55.686;37.848;2024-01-15T01:42:49;4.88;;;3.78;;
47784;SDS011;35233;55.686;37.848;2024-01-15T01:45:14;5.35;;;3.70;;
47784;SDS011;35233;55.686;37.848;2024-01-15T01:47:40;4.55;;;3.45;;
47784;SDS011;35233;55.686;37.848;2024-01-15T01:50:06;5.40;;;3.80;;
47784;SDS011;35233;55.686;37.848;2024-01-15T01:52:32;6.00;;;3.78;;
47784;SDS011;35233;55.686;37.848;2024-01-15T01:55:00;4.95;;;3.47;;
47784;SDS011;35233;55.686;37.848;2024-01-15T01:57:28;5.55;;;3.60;;
47784;SDS011;35233;55.686;37.848;2024-01-15T01:59:55;5.28;;;3.90;;
47784;SDS011;35233;55.686;37.848;2024-01-15T02:02:23;4.68;;;3.60;;
47784;SDS011;35233;55.686;37.848;2024-01-15T02:04:49;5.80;;;4.18;;
47784;SDS011;35233;55.686;37.848;2024-01-15T02:07:15;5.53;;;3.60;;
47784;SDS011;35233;55.686;37.848;2024-01-15T02:09:42;5.18;;;4.10;;
47784;SDS011;35233;55.686;37.848;2024-01-15T02:12:10;6.50;;;3.97;;
47784;SDS011;35233;55.686;37.848;2024-01-15T02:14:36;4.90;;;3.70;;
47784;SDS011;35233;55.686;37.848;2024-01-15T02:17:02;4.78;;;3.40;;
47784;SDS011;35233;55.686;37.848;2024-01-15T02:19:27;6.38;;;3.88;;
47784;SDS011;35233;55.686;37.848;2024-01-15T02:21:53;5.30;;;3.53;;
47784;SDS011;35233;55.686;37.848;2024-01-15T02:24:19;4.95;;;4.10;;
47784;SDS011;35233;55.686;37.848;2024-01-15T02:26:44;5.57;;;4.13;;
47784;SDS011;35233;55.686;37.848;2024-01-15T02:29:10;6.10;;;3.50;;
47784;SDS011;35233;55.686;37.848;2024-01-15T02:31:37;5.78;;;3.80;;
47784;SDS011;35233;55.686;37.848;2024-01-15T02:34:03;5.22;;;3.80;;
47784;SDS011;35233;55.686;37.848;2024-01-15T02:36:28;5.57;;;4.05;;
47784;SDS011;35233;55.686;37.848;2024-01-15T02:38:54;5.82;;;4.10;;
47784;SDS011;35233;55.686;37.848;2024-01-15T02:41:20;6.28;;;4.10;;
47784;SDS011;35233;55.686;37.848;2024-01-15T02:43:45;7.10;;;3.70;;
47784;SDS011;35233;55.686;37.848;2024-01-15T02:46:11;5.57;;;4.00;;
47784;SDS011;35233;55.686;37.848;2024-01-15T02:48:36;5.80;;;4.15;;
47784;SDS011;35233;55.686;37.848;2024-01-15T02:51:02;5.07;;;3.70;;
47784;SDS011;35233;55.686;37.848;2024-01-15T02:53:28;5.82;;;4.10;;
47784;SDS011;35233;55.686;37.848;2024-01-15T02:55:54;6.25;;;4.13;;
47784;SDS011;35233;55.686;37.848;2024-01-15T02:58:19;5.57;;;3.88;;
47784;SDS011;35233;55.686;37.848;2024-01-15T03:00:45;5.90;;;4.28;;
47784;SDS011;35233;55.686;37.848;2024-01-15T03:03:11;6.90;;;3.80;;
47784;SDS011;35233;55.686;37.848;2024-01-15T03:05:37;5.95;;;4.00;;
47784;SDS011;35233;55.686;37.848;2024-01-15T03:08:03;5.95;;;4.03;;
47784;SDS011;35233;55.686;37.848;2024-01-15T03:10:29;7.82;;;4.25;;
47784;SDS011;35233;55.686;37.848;2024-01-15T03:12:54;6.18;;;4.13;;
47784;SDS011;35233;55.686;37.848;2024-01-15T03:15:20;5.85;;;4.20;;
47784;SDS011;35233;55.686;37.848;2024-01-15T03:17:46;6.35;;;4.15;;
47784;SDS011;35233;55.686;37.848;2024-01-15T03:20:11;6.13;;;4.18;;
47784;SDS011;35233;55.686;37.848;2024-01-15T03:22:37;5.85;;;4.00;;
47784;SDS011;35233;55.686;37.848;2024-01-15T03:25:03;5.47;;;3.90;;
47784;SDS011;35233;55.686;37.848;2024-01-15T03:27:29;6.50;;;4.00;;
47784;SDS011;35233;55.686;37.848;2024-01-15T03:29:55;5.85;;;4.57;;
47784;SDS011;35233;55.686;37.848;2024-01-15T03:32:20;6.22;;;4.25;;
47784;SDS011;35233;55.686;37.848;2024-01-15T03:34:46;5.78;;;4.03;;
47784;SDS011;35233;55.686;37.848;2024-01-15T03:37:12;6.00;;;4.25;;
47784;SDS011;35233;55.686;37.848;2024-01-15T03:39:38;5.75;;;4.13;;
47784;SDS011;35233;55.686;37.848;2024-01-15T03:42:04;5.68;;;4.00;;
47784;SDS011;35233;55.686;37.848;2024-01-15T03:44:29;5.85;;;4.03;;
47784;SDS011;35233;55.686;37.848;2024-01-15T03:46:55;6.28;;;4.15;;
47784;SDS011;35233;55.686;37.848;2024-01-15T03:49:21;5.35;;;3.90;;
47784;SDS011;35233;55.686;37.848;2024-01-15T03:51:46;6.22;;;4.45;;
47784;SDS011;35233;55.686;37.848;2024-01-15T03:54:12;6.38;;;4.28;;
47784;SDS011;35233;55.686;37.848;2024-01-15T03:56:37;5.25;;;3.83;;
47784;SDS011;35233;55.686;37.848;2024-01-15T03:59:03;5.93;;;4.30;;
47784;SDS011;35233;55.686;37.848;2024-01-15T04:01:29;6.32;;;4.50;;
47784;SDS011;35233;55.686;37.848;2024-01-15T04:03:54;5.88;;;4.47;;
47784;SDS011;35233;55.686;37.848;2024-01-15T04:06:20;5.38;;;4.03;;
47784;SDS011;35233;55.686;37.848;2024-01-15T04:08:46;5.93;;;4.28;;
47784;SDS011;35233;55.686;37.848;2024-01-15T04:11:11;6.00;;;4.50;;
47784;SDS011;35233;55.686;37.848;2024-01-15T04:13:37;5.63;;;4.28;;
47784;SDS011;35233;55.686;37.848;2024-01-15T04:16:03;6.57;;;4.70;;
47784;SDS011;35233;55.686;37.848;2024-01-15T04:18:30;5.93;;;4.35;;
47784;SDS011;35233;55.686;37.848;2024-01-15T04:20:56;6.03;;;4.50;;
47784;SDS011;35233;55.686;37.848;2024-01-15T04:23:21;6.80;;;4.28;;
47784;SDS011;35233;55.686;37.848;2024-01-15T04:25:47;5.72;;;4.43;;
47784;SDS011;35233;55.686;37.848;2024-01-15T04:28:13;5.30;;;4.10;;
47784;SDS011;35233;55.686;37.848;2024-01-15T04:30:38;6.10;;;4.40;;
47784;SDS011;35233;55.686;37.848;2024-01-15T04:33:04;6.97;;;4.38;;
47784;SDS011;35233;55.686;37.848;2024-01-15T04:35:30;5.82;;;4.30;;
47784;SDS011;35233;55.686;37.848;2024-01-15T04:37:56;5.90;;;4.15;;
47784;SDS011;35233;55.686;37.848;2024-01-15T04:40:22;7.78;;;4.95;;
47784;SDS011;35233;55.686;37.848;2024-01-15T04:42:47;6.28;;;5.13;;
47784;SDS011;35233;55.686;37.848;2024-01-15T04:45:13;7.63;;;5.47;;
47784;SDS011;35233;55.686;37.848;2024-01-15T04:47:38;7.40;;;5.70;;
47784;SDS011;35233;55.686;37.848;2024-01-15T04:50:04;6.82;;;6.03;;
47784;SDS011;35233;55.686;37.848;2024-01-15T04:52:30;9.25;;;6.45;;
47784;SDS011;35233;55.686;37.848;2024-01-15T04:54:56;8.90;;;6.47;;
47784;SDS011;35233;55.686;37.848;2024-01-15T04:57:22;9.40;;;6.88;;
47784;SDS011;35233;55.686;37.848;2024-01-15T04:59:47;8.80;;;6.60;;
47784;SDS011;35233;55.686;37.848;2024-01-15T05:02:13;9.60;;;7.80;;
47784;SDS011;35233;55.686;37.848;2024-01-15T05:04:39;9.35;;;6.70;;
47784;SDS011;35233;55.686;37.848;2024-01-15T05:07:04;10.60;;;6.93;;
47784;SDS011;35233;55.686;37.848;2024-01-15T05:09:30;11.05;;;6.30;;
47784;SDS011;35233;55.686;37.848;2024-01-15T05:11:56;9.52;;;6.90;;
47784;SDS011;35233;55.686;37.848;2024-01-15T05:14:21;10.40;;;6.43;;
47784;SDS011;35233;55.686;37.848;2024-01-15T05:16:47;10.48;;;6.05;;
47784;SDS011;35233;55.686;37.848;2024-01-15T05:19:14;7.57;;;6.00;;
47784;SDS011;35233;55.686;37.848;2024-01-15T05:21:40;9.57;;;6.47;;
47784;SDS011;35233;55.686;37.848;2024-01-15T05:24:06;8.95;;;6.63;;
47784;SDS011;35233;55.686;37.848;2024-01-15T05:26:33;11.55;;;7.88;;
47784;SDS011;35233;55.686;37.848;2024-01-15T05:28:58;10.57;;;8.63;;
47784;SDS011;35233;55.686;37.848;2024-01-15T05:31:24;10.65;;;7.90;;
47784;SDS011;35233;55.686;37.848;2024-01-15T05:33:50;10.80;;;8.05;;
47784;SDS011;35233;55.686;37.848;2024-01-15T05:36:16;11.73;;;8.30;;
47784;SDS011;35233;55.686;37.848;2024-01-15T05:38:41;12.13;;;8.40;;
47784;SDS011;35233;55.686;37.848;2024-01-15T05:41:07;10.10;;;7.70;;
47784;SDS011;35233;55.686;37.848;2024-01-15T05:43:32;9.38;;;7.30;;
47784;SDS011;35233;55.686;37.848;2024-01-15T05:45:58;9.93;;;7.30;;
47784;SDS011;35233;55.686;37.848;2024-01-15T05:48:24;9.80;;;7.90;;
47784;SDS011;35233;55.686;37.848;2024-01-15T05:50:49;9.20;;;6.55;;
47784;SDS011;35233;55.686;37.848;2024-01-15T05:53:15;9.32;;;6.82;;
47784;SDS011;35233;55.686;37.848;2024-01-15T05:55:40;11.25;;;7.50;;
47784;SDS011;35233;55.686;37.848;2024-01-15T05:58:06;9.57;;;6.88;;
47784;SDS011;35233;55.686;37.848;2024-01-15T06:00:32;9.60;;;6.97;;
47784;SDS011;35233;55.686;37.848;2024-01-15T06:03:01;9.80;;;6.90;;
47784;SDS011;35233;55.686;37.848;2024-01-15T06:05:27;10.02;;;6.90;;
47784;SDS011;35233;55.686;37.848;2024-01-15T06:07:52;8.02;;;6.13;;
47784;SDS011;35233;55.686;37.848;2024-01-15T06:10:18;9.15;;;6.53;;
47784;SDS011;35233;55.686;37.848;2024-01-15T06:12:43;8.05;;;5.93;;
47784;SDS011;35233;55.686;37.848;2024-01-15T06:15:09;8.95;;;6.30;;
47784;SDS011;35233;55.686;37.848;2024-01-15T06:17:35;8.57;;;6.40;;
47784;SDS011;35233;55.686;37.848;2024-01-15T06:20:01;8.45;;;6.35;;
47784;SDS011;35233;55.686;37.848;2024-01-15T06:22:27;9.23;;;6.50;;
47784;SDS011;35233;55.686;37.848;2024-01-15T06:24:53;7.78;;;6.03;;
47784;SDS011;35233;55.686;37.848;2024-01-15T06:27:18;8.20;;;6.03;;
47784;SDS011;35233;55.686;37.848;2024-01-15T06:29:47;8.57;;;6.50;;
47784;SDS011;35233;55.686;37.848;2024-01-15T06:32:12;8.13;;;6.25;;
47784;SDS011;35233;55.686;37.848;2024-01-15T06:34:38;7.22;;;5.88;;
47784;SDS011;35233;55.686;37.848;2024-01-15T06:37:04;7.88;;;6.00;;
47784;SDS011;35233;55.686;37.848;2024-01-15T06:39:30;8.80;;;5.95;;
47784;SDS011;35233;55.686;37.848;2024-01-15T06:41:55;10.07;;;6.70;;
47784;SDS011;35233;55.686;37.848;2024-01-15T06:44:21;8.20;;;5.88;;
47784;SDS011;35233;55.686;37.848;2024-01-15T06:46:47;8.57;;;5.95;;
47784;SDS011;35233;55.686;37.848;2024-01-15T06:49:12;8.48;;;5.85;;
47784;SDS011;35233;55.686;37.848;2024-01-15T06:51:38;7.85;;;5.40;;
47784;SDS011;35233;55.686;37.848;2024-01-15T06:54:04;9.93;;;5.35;;
47784;SDS011;35233;55.686;37.848;2024-01-15T06:56:30;7.03;;;5.25;;
47784;SDS011;35233;55.686;37.848;2024-01-15T06:58:56;7.55;;;5.65;;
47784;SDS011;35233;55.686;37.848;2024-01-15T07:01:22;7.68;;;6.00;;
47784;SDS011;35233;55.686;37.848;2024-01-15T07:03:48;8.73;;;5.78;;
47784;SDS011;35233;55.686;37.848;2024-01-15T07:06:13;6.85;;;5.15;;
47784;SDS011;35233;55.686;37.848;2024-01-15T07:08:39;7.35;;;5.70;;
47784;SDS011;35233;55.686;37.848;2024-01-15T07:11:05;8.20;;;6.32;;
47784;SDS011;35233;55.686;37.848;2024-01-15T07:13:32;7.22;;;5.72;;
47784;SDS011;35233;55.686;37.848;2024-01-15T07:15:58;7.75;;;6.05;;
47784;SDS011;35233;55.686;37.848;2024-01-15T07:18:24;7.78;;;5.55;;
47784;SDS011;35233;55.686;37.848;2024-01-15T07:20:50;10.23;;;5.70;;
47784;SDS011;35233;55.686;37.848;2024-01-15T07:23:16;7.63;;;5.50;;
47784;SDS011;35233;55.686;37.848;2024-01-15T07:25:42;7.55;;;5.45;;
47784;SDS011;35233;55.686;37.848;2024-01-15T07:28:08;8.20;;;5.97;;
47784;SDS011;35233;55.686;37.848;2024-01-15T07:30:35;8.10;;;5.82;;
47784;SDS011;35233;55.686;37.848;2024-01-15T07:33:06;7.70;;;5.70;;
47784;SDS011;35233;55.686;37.848;2024-01-15T07:35:32;7.90;;;5.97;;
47784;SDS011;35233;55.686;37.848;2024-01-15T07:37:57;7.13;;;5.65;;
47784;SDS011;35233;55.686;37.848;2024-01-15T07:40:23;9.05;;;5.82;;
47784;SDS011;35233;55.686;37.848;2024-01-15T07:42:50;7.78;;;5.80;;
47784;SDS011;35233;55.686;37.848;2024-01-15T07:45:16;7.88;;;5.80;;
47784;SDS011;35233;55.686;37.848;2024-01-15T07:47:42;7.75;;;6.00;;
47784;SDS011;35233;55.686;37.848;2024-01-15T07:50:07;8.10;;;5.40;;
47784;SDS011;35233;55.686;37.848;2024-01-15T07:52:33;7.00;;;5.43;;
47784;SDS011;35233;55.686;37.848;2024-01-15T07:54:58;7.97;;;5.68;;
47784;SDS011;35233;55.686;37.848;2024-01-15T07:57:28;7.70;;;5.60;;
47784;SDS011;35233;55.686;37.848;2024-01-15T07:59:54;7.97;;;5.75;;
47784;SDS011;35233;55.686;37.848;2024-01-15T08:02:20;8.30;;;5.57;;
47784;SDS011;35233;55.686;37.848;2024-01-15T08:04:47;8.40;;;6.18;;
47784;SDS011;35233;55.686;37.848;2024-01-15T08:07:12;7.63;;;5.60;;
47784;SDS011;35233;55.686;37.848;2024-01-15T08:09:38;7.43;;;5.70;;
47784;SDS011;35233;55.686;37.848;2024-01-15T08:12:04;7.18;;;5.50;;
47784;SDS011;35233;55.686;37.848;2024-01-15T08:14:31;7.43;;;5.28;;
47784;SDS011;35233;55.686;37.848;2024-01-15T08:16:57;6.75;;;5.28;;
47784;SDS011;35233;55.686;37.848;2024-01-15T08:19:24;6.97;;;5.35;;
47784;SDS011;35233;55.686;37.848;2024-01-15T08:21:50;6.65;;;5.25;;
47784;SDS011;35233;55.686;37.848;2024-01-15T08:24:15;8.30;;;5.75;;
47784;SDS011;35233;55.686;37.848;2024-01-15T08:26:42;7.32;;;5.63;;
47784;SDS011;35233;55.686;37.848;2024-01-15T08:29:07;7.65;;;5.72;;
47784;SDS011;35233;55.686;37.848;2024-01-15T08:31:33;7.10;;;5.40;;
47784;SDS011;35233;55.686;37.848;2024-01-15T08:33:59;7.85;;;5.78;;
47784;SDS011;35233;55.686;37.848;2024-01-15T08:36:26;8.73;;;5.40;;
47784;SDS011;35233;55.686;37.848;2024-01-15T08:38:54;6.90;;;5.50;;
47784;SDS011;35233;55.686;37.848;2024-01-15T08:41:20;7.32;;;5.47;;
47784;SDS011;35233;55.686;37.848;2024-01-15T08:43:46;7.95;;;5.30;;
47784;SDS011;35233;55.686;37.848;2024-01-15T08:46:11;9.23;;;5.00;;
47784;SDS011;35233;55.686;37.848;2024-01-15T08:48:37;7.43;;;5.72;;
47784;SDS011;35233;55.686;37.848;2024-01-15T08:51:03;7.95;;;5.22;;
47784;SDS011;35233;55.686;37.848;2024-01-15T08:53:32;6.60;;;4.82;;
47784;SDS011;35233;55.686;37.848;2024-01-15T08:56:01;7.30;;;5.53;;
47784;SDS011;35233;55.686;37.848;2024-01-15T08:58:27;7.82;;;6.25;;
47784;SDS011;35233;55.686;37.848;2024-01-15T09:00:52;7.55;;;5.82;;
47784;SDS011;35233;55.686;37.848;2024-01-15T09:03:18;8.55;;;6.47;;
47784;SDS011;35233;55.686;37.848;2024-01-15T09:05:43;7.97;;;6.50;;
47784;SDS011;35233;55.686;37.848;2024-01-15T09:08:09;8.57;;;6.47;;
47784;SDS011;35233;55.686;37.848;2024-01-15T09:10:35;9.13;;;7.22;;
47784;SDS011;35233;55.686;37.848;2024-01-15T09:13:00;8.88;;;6.80;;
47784;SDS011;35233;55.686;37.848;2024-01-15T09:15:27;9.13;;;6.80;;
47784;SDS011;35233;55.686;37.848;2024-01-15T09:17:53;8.43;;;6.40;;
47784;SDS011;35233;55.686;37.848;2024-01-15T09:20:18;9.40;;;6.85;;
47784;SDS011;35233;55.686;37.848;2024-01-15T09:22:44;11.02;;;7.05;;
47784;SDS011;35233;55.686;37.848;2024-01-15T09:25:10;8.73;;;6.90;;
47784;SDS011;35233;55.686;37.848;2024-01-15T09:27:36;9.07;;;6.78;;
47784;SDS011;35233;55.686;37.848;2024-01-15T09:30:05;9.05;;;6.93;;
47784;SDS011;35233;55.686;37.848;2024-01-15T09:32:31;8.65;;;6.93;;
47784;SDS011;35233;55.686;37.848;2024-01-15T09:34:58;8.85;;;7.15;;
47784;SDS011;35233;55.686;37.848;2024-01-15T09:37:23;9.55;;;7.45;;
47784;SDS011;35233;55.686;37.848;2024-01-15T09:39:49;9.40;;;7.63;;
47784;SDS011;35233;55.686;37.848;2024-01-15T09:42:15;10.50;;;7.65;;
47784;SDS011;35233;55.686;37.848;2024-01-15T09:44:41;10.02;;;8.05;;
47784;SDS011;35233;55.686;37.848;2024-01-15T09:47:07;12.10;;;8.60;;
47784;SDS011;35233;55.686;37.848;2024-01-15T09:49:33;10.68;;;8.50;;
47784;SDS011;35233;55.686;37.848;2024-01-15T09:51:59;11.98;;;8.25;;
47784;SDS011;35233;55.686;37.848;2024-01-15T09:54:27;11.57;;;8.32;;
47784;SDS011;35233;55.686;37.848;2024-01-15T09:56:54;10.25;;;8.02;;
47784;SDS011;35233;55.686;37.848;2024-01-15T09:59:20;9.52;;;7.45;;
47784;SDS011;35233;55.686;37.848;2024-01-15T10:01:48;8.88;;;7.63;;
47784;SDS011;35233;55.686;37.848;2024-01-15T10:04:15;10.98;;;7.75;;
47784;SDS011;35233;55.686;37.848;2024-01-15T10:06:44;10.45;;;8.23;;
47784;SDS011;35233;55.686;37.848;2024-01-15T10:09:14;9.45;;;7.80;;
47784;SDS011;35233;55.686;37.848;2024-01-15T10:11:44;8.98;;;7.35;;
47784;SDS011;35233;55.686;37.848;2024-01-15T10:14:10;9.60;;;7.43;;
47784;SDS011;35233;55.686;37.848;2024-01-15T10:16:40;9.77;;;7.18;;
47784;SDS011;35233;55.686;37.848;2024-01-15T10:19:07;10.07;;;7.40;;
47784;SDS011;35233;55.686;37.848;2024-01-15T10:21:33;8.27;;;6.90;;
47784;SDS011;35233;55.686;37.848;2024-01-15T10:24:02;10.30;;;6.82;;
47784;SDS011;35233;55.686;37.848;2024-01-15T10:26:29;9.13;;;6.90;;
47784;SDS011;35233;55.686;37.848;2024-01-15T10:28:55;8.32;;;6.53;;
47784;SDS011;35233;55.686;37.848;2024-01-15T10:31:21;9.57;;;6.70;;
47784;SDS011;35233;55.686;37.848;2024-01-15T10:33:50;8.50;;;6.57;;
47784;SDS011;35233;55.686;37.848;2024-01-15T10:36:16;8.02;;;6.75;;
47784;SDS011;35233;55.686;37.848;2024-01-15T10:38:46;6.95;;;5.85;;
47784;SDS011;35233;55.686;37.848;2024-01-15T10:41:12;7.93;;;6.28;;
47784;SDS011;35233;55.686;37.848;2024-01-15T10:43:38;7.78;;;6.25;;
47784;SDS011;35233;55.686;37.848;2024-01-15T10:46:06;9.00;;;6.63;;
47784;SDS011;35233;55.686;37.848;2024-01-15T10:48:32;7.90;;;6.32;;
47784;SDS011;35233;55.686;37.848;2024-01-15T10:51:00;9.20;;;6.55;;
47784;SDS011;35233;55.686;37.848;2024-01-15T10:53:35;7.35;;;5.90;;
47784;SDS011;35233;55.686;37.848;2024-01-15T10:56:05;9.27;;;6.28;;
47784;SDS011;35233;55.686;37.848;2024-01-15T10:58:32;7.55;;;6.03;;
47784;SDS011;35233;55.686;37.848;2024-01-15T11:00:59;8.30;;;6.03;;
47784;SDS011;35233;55.686;37.848;2024-01-15T11:03:26;8.15;;;6.43;;
47784;SDS011;35233;55.686;37.848;2024-01-15T11:05:53;7.72;;;5.85;;
47784;SDS011;35233;55.686;37.848;2024-01-15T11:08:18;8.57;;;6.25;;
47784;SDS011;35233;55.686;37.848;2024-01-15T11:10:46;7.07;;;6.00;;
47784;SDS011;35233;55.686;37.848;2024-01-15T11:16:01;9.43;;;6.28;;
47784;SDS011;35233;55.686;37.848;2024-01-15T11:18:34;7.20;;;5.38;;
47784;SDS011;35233;55.686;37.848;2024-01-15T11:23:57;8.15;;;6.10;;
47784;SDS011;35233;55.686;37.848;2024-01-15T11:29:30;7.30;;;5.50;;
47784;SDS011;35233;55.686;37.848;2024-01-15T11:31:58;6.65;;;5.35;;
47784;SDS011;35233;55.686;37.848;2024-01-15T11:37:19;8.18;;;5.45;;
47784;SDS011;35233;55.686;37.848;2024-01-15T11:39:46;8.07;;;6.18;;
47784;SDS011;35233;55.686;37.848;2024-01-15T11:42:12;7.47;;;5.65;;
47784;SDS011;35233;55.686;37.848;2024-01-15T11:44:39;8.52;;;5.53;;
47784;SDS011;35233;55.686;37.848;2024-01-15T11:47:05;8.05;;;6.10;;
47784;SDS011;35233;55.686;37.848;2024-01-15T11:49:53;7.20;;;5.68;;
47784;SDS011;35233;55.686;37.848;2024-01-15T11:52:21;7.63;;;5.88;;
47784;SDS011;35233;55.686;37.848;2024-01-15T11:57:55;9.07;;;6.88;;
47784;SDS011;35233;55.686;37.848;2024-01-15T12:00:23;9.88;;;6.50;;
47784;SDS011;35233;55.686;37.848;2024-01-15T12:02:49;7.95;;;6.35;;
47784;SDS011;35233;55.686;37.848;2024-01-15T12:05:16;8.75;;;6.72;;
47784;SDS011;35233;55.686;37.848;2024-01-15T12:07:44;8.75;;;6.85;;
47784;SDS011;35233;55.686;37.848;2024-01-15T12:10:12;7.97;;;6.45;;
47784;SDS011;35233;55.686;37.848;2024-01-15T12:15:33;8.52;;;6.43;;
47784;SDS011;35233;55.686;37.848;2024-01-15T12:17:59;8.88;;;6.40;;
47784;SDS011;35233;55.686;37.848;2024-01-15T12:20:27;9.82;;;6.75;;
47784;SDS011;35233;55.686;37.848;2024-01-15T12:22:54;8.52;;;6.70;;
47784;SDS011;35233;55.686;37.848;2024-01-15T12:25:23;7.97;;;6.30;;
47784;SDS011;35233;55.686;37.848;2024-01-15T12:27:50;9.02;;;6.53;;
47784;SDS011;35233;55.686;37.848;2024-01-15T12:30:17;8.45;;;6.35;;
47784;SDS011;35233;55.686;37.848;2024-01-15T12:32:43;8.05;;;6.10;;
47784;SDS011;35233;55.686;37.848;2024-01-15T12:35:10;8.07;;;6.47;;
47784;SDS011;35233;55.686;37.848;2024-01-15T12:37:36;9.27;;;6.95;;
47784;SDS011;35233;55.686;37.848;2024-01-15T12:40:04;8.98;;;7.13;;
47784;SDS011;35233;55.686;37.848;2024-01-15T12:42:34;8.15;;;6.63;;
47784;SDS011;35233;55.686;37.848;2024-01-15T12:45:01;9.13;;;7.07;;
47784;SDS011;35233;55.686;37.848;2024-01-15T12:47:27;8.95;;;7.05;;
47784;SDS011;35233;55.686;37.848;2024-01-15T12:49:52;9.43;;;6.72;;
47784;SDS011;35233;55.686;37.848;2024-01-15T12:52:21;8.63;;;6.82;;
47784;SDS011;35233;55.686;37.848;2024-01-15T12:54:49;9.02;;;6.90;;
47784;SDS011;35233;55.686;37.848;2024-01-15T12:57:16;9.98;;;7.00;;
47784;SDS011;35233;55.686;37.848;2024-01-15T12:59:42;10.35;;;7.93;;
47784;SDS011;35233;55.686;37.848;2024-01-15T13:02:10;10.10;;;7.50;;
47784;SDS011;35233;55.686;37.848;2024-01-15T13:04:39;9.30;;;7.50;;
47784;SDS011;35233;55.686;37.848;2024-01-15T13:07:05;10.13;;;8.05;;
47784;SDS011;35233;55.686;37.848;2024-01-15T13:09:32;9.32;;;7.40;;
47784;SDS011;35233;55.686;37.848;2024-01-15T13:11:58;10.00;;;7.95;;
47784;SDS011;35233;55.686;37.848;2024-01-15T13:14:23;11.68;;;7.88;;
47784;SDS011;35233;55.686;37.848;2024-01-15T13:16:49;10.82;;;8.38;;
47784;SDS011;35233;55.686;37.848;2024-01-15T13:19:15;11.80;;;8.32;;
47784;SDS011;35233;55.686;37.848;2024-01-15T13:21:40;11.50;;;8.40;;
47784;SDS011;35233;55.686;37.848;2024-01-15T13:24:06;11.40;;;8.35;;
47784;SDS011;35233;55.686;37.848;2024-01-15T13:26:32;10.38;;;7.97;;
47784;SDS011;35233;55.686;37.848;2024-01-15T13:29:02;10.88;;;8.57;;
47784;SDS011;35233;55.686;37.848;2024-01-15T13:31:31;10.70;;;8.15;;
47784;SDS011;35233;55.686;37.848;2024-01-15T13:33:57;10.68;;;8.23;;
47784;SDS011;35233;55.686;37.848;2024-01-15T13:36:24;11.20;;;8.88;;
47784;SDS011;35233;55.686;37.848;2024-01-15T13:38:52;11.25;;;8.13;;
47784;SDS011;35233;55.686;37.848;2024-01-15T13:41:19;10.45;;;8.18;;
47784;SDS011;35233;55.686;37.848;2024-01-15T13:43:54;11.43;;;8.50;;
47784;SDS011;35233;55.686;37.848;2024-01-15T13:46:24;10.10;;;8.30;;
47784;SDS011;35233;55.686;37.848;2024-01-15T13:48:51;9.77;;;8.00;;
47784;SDS011;35233;55.686;37.848;2024-01-15T13:51:17;10.40;;;8.30;;
47784;SDS011;35233;55.686;37.848;2024-01-15T13:53:43;10.75;;;8.15;;
47784;SDS011;35233;55.686;37.848;2024-01-15T13:56:09;10.35;;;7.95;;
47784;SDS011;35233;55.686;37.848;2024-01-15T13:58:37;9.65;;;7.60;;
47784;SDS011;35233;55.686;37.848;2024-01-15T14:01:03;10.68;;;8.00;;
47784;SDS011;35233;55.686;37.848;2024-01-15T14:03:31;10.27;;;7.97;;
47784;SDS011;35233;55.686;37.848;2024-01-15T14:05:56;10.98;;;7.97;;
47784;SDS011;35233;55.686;37.848;2024-01-15T14:08:22;9.45;;;7.43;;
47784;SDS011;35233;55.686;37.848;2024-01-15T14:10:48;10.63;;;7.82;;
47784;SDS011;35233;55.686;37.848;2024-01-15T14:13:14;9.13;;;7.07;;
47784;SDS011;35233;55.686;37.848;2024-01-15T14:15:40;10.20;;;7.25;;
47784;SDS011;35233;55.686;37.848;2024-01-15T14:18:05;9.45;;;6.97;;
47784;SDS011;35233;55.686;37.848;2024-01-15T14:20:31;9.32;;;7.18;;
47784;SDS011;35233;55.686;37.848;2024-01-15T14:22:58;9.73;;;7.43;;
47784;SDS011;35233;55.686;37.848;2024-01-15T14:25:23;9.70;;;7.03;;
47784;SDS011;35233;55.686;37.848;2024-01-15T14:27:49;9.00;;;7.35;;
47784;SDS011;35233;55.686;37.848;2024-01-15T14:30:15;9.00;;;7.00;;
47784;SDS011;35233;55.686;37.848;2024-01-15T14:32:44;9.10;;;7.10;;
47784;SDS011;35233;55.686;37.848;2024-01-15T14:35:10;9.43;;;6.35;;
47784;SDS011;35233;55.686;37.848;2024-01-15T14:37:39;8.85;;;7.47;;
47784;SDS011;35233;55.686;37.848;2024-01-15T14:40:05;9.65;;;7.05;;
47784;SDS011;35233;55.686;37.848;2024-01-15T14:42:40;8.48;;;6.93;;
47784;SDS011;35233;55.686;37.848;2024-01-15T14:45:07;9.55;;;7.20;;